LRBC/BCM METAR and TAF weather

Enter ICAO airport designator
Station Type Date Time Source
LRBC METAR 2018/12/15 23:00 UTC NOAA

LRBC 152300Z 00000KT 2600 -SN BR SCT001 BKN016 OVC032 M00/M01 Q1024 R16/590394


Station Type Date Time Source
LRBC Decoded METAR 2018/12/15 23:00 UTC NOAA

Bacau, Romania (LRBC) 46-35N 026-58E 190M
Dec 15, 2018 - 06:00 PM EST / 2018.12.15 2300 UTC
Wind: Calm:0
Visibility: 1 mile(s):0
Sky conditions: overcast
Weather: light snow; mist
Temperature: 32 F (0 C)
Dew Point: 30 F (-1 C)
Relative Humidity: 92%
Pressure (altimeter): 30.24 in. Hg (1024 hPa)
ob: LRBC 152300Z 00000KT 2600 -SN BR SCT001 BKN016 OVC032 M00/M01 Q1024 R16/590394
cycle: 23

Station Type Date Time Source
LRBC TAF 2010/08/31 20:30 UTC NOAA

TAF LRBC 312030Z 3121/0203 CNL


Example: see airport list